Thunder radar more information blitzortung!


Radar de pluja more information rain snow radar


Visita la nostra xarxa de llocs de meteo:

Template documentation
and downloads

And another site



No particular awareness of the weather is required.    There are no Weather-warnings

Pagina Historial Weather Underground text

Diari Resum Agost 24, 2017 Unitats:  Mètric    Imperial   Tant
« Previous Dia
SegĂźent Dia »
Diari Setmana Mensual Anual Personalitzada
  Maxima: Minima: Media:
Temperatura: 34.4 °C 20.6 °C 27.4 °C
Punt de rosada: 18.4 °C 8.4 °C 13.4 °C
Humitat: 75 % 25 % 45 %
Wind Speed: 18.5 km/h 0.0 km/h 5.8 km/h
RĂ fegues de vent: 18.5 km/h - -
Vent:- - SW
Pression baro: 1016.8 hPa 1014.8 hPa -
Precipitacions: 0.0 mm    
Historical Graphs
 
 
Dades de taula per Agost 24, 2017
Temps Temperatura Punt de rosada Pression baro Vent Wind Speed RĂ fegues de vent Humitat Rainfall Rate (Hourly)
00:00 21.9 °C 16.6 °C 1015.8 hPa WSW 4.8 km/h 9.7 km/h 72 % 0.0 mm
00:02 23.2 °C 17.4 °C 1015.8 hPa SSW 3.9 km/h 3.9 km/h 70 % 0.0 mm
00:07 23.1 °C 17.6 °C 1015.8 hPa SW 2.3 km/h 2.3 km/h 71 % 0.0 mm
00:10 22.1 °C 15.4 °C 1015.8 hPa WSW 1.6 km/h 4.8 km/h 66 % 0.0 mm
00:20 22.1 °C 15.2 °C 1015.8 hPa Calm   3.2 km/h 65 % 0.0 mm
00:30 22.1 °C 14.5 °C 1014.8 hPa Calm   1.6 km/h 62 % 0.0 mm
00:40 21.9 °C 15.0 °C 1014.8 hPa SW 3.2 km/h 8.0 km/h 65 % 0.0 mm
00:50 21.7 °C 14.8 °C 1014.8 hPa SW 3.2 km/h 6.4 km/h 65 % 0.0 mm
01:00 21.9 °C 15.0 °C 1014.8 hPa WSW 4.8 km/h 9.7 km/h 65 % 0.0 mm
01:10 22.0 °C 14.6 °C 1014.8 hPa SW 1.6 km/h 4.8 km/h 63 % 0.0 mm
01:20 22.0 °C 14.6 °C 1014.8 hPa Calm   4.8 km/h 63 % 0.0 mm
01:30 21.8 °C 14.7 °C 1014.8 hPa WSW 1.6 km/h 3.2 km/h 64 % 0.0 mm
01:40 21.7 °C 14.6 °C 1014.8 hPa Calm   3.2 km/h 64 % 0.0 mm
01:50 21.7 °C 14.3 °C 1014.8 hPa SW 1.6 km/h 3.2 km/h 63 % 0.0 mm
02:00 21.5 °C 14.2 °C 1014.8 hPa Calm   3.2 km/h 63 % 0.0 mm
02:10 21.6 °C 14.3 °C 1014.8 hPa SW 4.8 km/h 4.8 km/h 63 % 0.0 mm
02:20 21.5 °C 14.2 °C 1014.8 hPa WSW 1.6 km/h 4.8 km/h 63 % 0.0 mm
02:30 21.6 °C 14.0 °C 1014.8 hPa West 1.6 km/h 3.2 km/h 62 % 0.0 mm
02:40 21.3 °C 13.7 °C 1014.8 hPa SW 3.2 km/h 4.8 km/h 62 % 0.0 mm
02:50 21.2 °C 13.9 °C 1014.8 hPa SW 1.6 km/h 3.2 km/h 63 % 0.0 mm
03:00 21.2 °C 13.9 °C 1014.8 hPa Calm   3.2 km/h 63 % 0.0 mm
03:10 21.4 °C 13.8 °C 1014.8 hPa SSW 1.6 km/h 3.2 km/h 62 % 0.0 mm
03:20 21.4 °C 13.8 °C 1014.8 hPa West 1.6 km/h 1.6 km/h 62 % 0.0 mm
03:30 21.7 °C 14.1 °C 1014.8 hPa WNW 1.6 km/h 3.2 km/h 62 % 0.0 mm
03:40 21.8 °C 13.9 °C 1014.8 hPa North 1.6 km/h 3.2 km/h 61 % 0.0 mm
03:50 21.6 °C 13.8 °C 1014.8 hPa NE 1.6 km/h 3.2 km/h 61 % 0.0 mm
04:00 21.6 °C 13.8 °C 1014.8 hPa ENE 3.2 km/h 3.2 km/h 61 % 0.0 mm
04:10 21.7 °C 13.8 °C 1014.8 hPa WSW 1.6 km/h 4.8 km/h 61 % 0.0 mm
04:20 21.9 °C 14.1 °C 1014.8 hPa WSW 1.6 km/h 4.8 km/h 61 % 0.0 mm
04:40 22.8 °C 14.6 °C 1015.8 hPa Calm   3.2 km/h 60 % 0.0 mm
04:50 23.3 °C 14.8 °C 1014.8 hPa SW 1.6 km/h 1.6 km/h 59 % 0.0 mm
05:00 23.2 °C 14.5 °C 1015.8 hPa Calm   3.2 km/h 58 % 0.0 mm
09:00 31.4 °C 17.3 °C 1015.8 hPa SW 4.8 km/h 9.7 km/h 43 % 0.0 mm
09:10 31.7 °C 17.2 °C 1015.8 hPa SW 4.8 km/h 12.9 km/h 42 % 0.0 mm
09:20 32.4 °C 17.8 °C 1015.8 hPa SW 3.2 km/h 6.4 km/h 42 % 0.0 mm
09:30 32.1 °C 17.2 °C 1015.8 hPa SW 9.7 km/h 9.7 km/h 41 % 0.0 mm
09:40 32.3 °C 17.0 °C 1015.8 hPa SW 8.0 km/h 12.9 km/h 40 % 0.0 mm
09:50 33.2 °C 16.9 °C 1015.8 hPa SW 4.8 km/h 8.0 km/h 38 % 0.0 mm
10:04 22.8 °C 16.1 °C 1014.8 hPa SSW 3.7 km/h 3.7 km/h 66 % 0.0 mm
10:09 22.8 °C 16.1 °C 1014.8 hPa ESE 1.9 km/h   66 % 0.0 mm
10:14 23.0 °C 16.3 °C 1015.8 hPa WNW 1.9 km/h   66 % 0.0 mm
10:19 23.2 °C 16.5 °C 1015.8 hPa SSE 3.7 km/h 3.7 km/h 66 % 0.0 mm
10:24 23.6 °C 16.9 °C 1015.8 hPa SSE 4.2 km/h 4.2 km/h 66 % 0.0 mm
10:29 23.9 °C 16.9 °C 1015.8 hPa SSE 2.6 km/h 2.6 km/h 65 % 0.0 mm
10:34 24.1 °C 16.6 °C 1015.8 hPa SSE 3.7 km/h 3.7 km/h 63 % 0.0 mm
10:39 24.1 °C 16.4 °C 1015.8 hPa NNE 4.7 km/h 4.7 km/h 62 % 0.0 mm
10:44 24.0 °C 17.0 °C 1014.8 hPa West 4.2 km/h 4.2 km/h 65 % 0.0 mm
10:49 23.5 °C 17.0 °C 1014.8 hPa West 5.6 km/h 5.6 km/h 67 % 0.0 mm
10:54 23.4 °C 17.2 °C 1014.8 hPa NNW 2.3 km/h 2.3 km/h 68 % 0.0 mm
10:59 23.5 °C 17.7 °C 1015.8 hPa East 2.6 km/h 2.6 km/h 70 % 0.0 mm
11:04 24.1 °C 17.8 °C 1015.8 hPa WNW 3.7 km/h 3.7 km/h 68 % 0.0 mm
11:09 24.8 °C 18.0 °C 1015.8 hPa NNE 7.4 km/h 7.4 km/h 66 % 0.0 mm
11:14 25.4 °C 17.8 °C 1015.8 hPa WNW 5.8 km/h 5.8 km/h 63 % 0.0 mm
11:52 28.1 °C 17.9 °C 1015.8 hPa WSW 5.6 km/h 5.6 km/h 54 % 0.0 mm
11:57 28.7 °C 18.2 °C 1015.8 hPa West 9.3 km/h 9.3 km/h 53 % 0.0 mm
12:02 29.0 °C 18.2 °C 1015.8 hPa West 7.4 km/h 7.6 km/h 52 % 0.0 mm
12:07 29.1 °C 17.9 °C 1015.8 hPa SW 9.3 km/h 9.3 km/h 51 % 0.0 mm
12:12 29.3 °C 18.1 °C 1015.8 hPa West 7.4 km/h 7.4 km/h 51 % 0.0 mm
12:17 29.7 °C 18.2 °C 1015.8 hPa WSW 7.4 km/h 7.4 km/h 50 % 0.0 mm
12:18 29.7 °C 18.2 °C 1015.8 hPa West 7.4 km/h 7.4 km/h 50 % 0.0 mm
12:23 29.8 °C 18.3 °C 1015.8 hPa WSW 9.3 km/h 9.3 km/h 50 % 0.0 mm
12:28 30.0 °C 18.1 °C 1015.8 hPa SW 10.3 km/h 10.3 km/h 49 % 0.0 mm
12:33 30.4 °C 18.2 °C 1015.8 hPa SW 5.6 km/h 5.6 km/h 48 % 0.0 mm
12:38 31.1 °C 18.4 °C 1015.8 hPa WSW 7.4 km/h 7.4 km/h 47 % 0.0 mm
12:43 31.3 °C 18.3 °C 1015.8 hPa SW 7.4 km/h 7.4 km/h 46 % 0.0 mm
14:55 33.0 °C 15.1 °C 1014.8 hPa South 16.7 km/h 16.7 km/h 34 % 0.0 mm
15:00 33.2 °C 15.7 °C 1014.8 hPa WSW 9.3 km/h 9.3 km/h 35 % 0.0 mm
15:05 33.4 °C 15.8 °C 1014.8 hPa South 9.3 km/h 9.3 km/h 35 % 0.0 mm
15:10 34.0 °C 16.4 °C 1014.8 hPa West 5.0 km/h 5.3 km/h 35 % 0.0 mm
15:15 33.9 °C 14.9 °C 1014.8 hPa South 16.7 km/h 16.7 km/h 32 % 0.0 mm
15:20 34.1 °C 15.6 °C 1014.8 hPa WSW 9.3 km/h 10.3 km/h 33 % 0.0 mm
15:25 33.5 °C 15.0 °C 1014.8 hPa SW 13.0 km/h 13.0 km/h 33 % 0.0 mm
15:30 33.7 °C 15.2 °C 1014.8 hPa SW 7.4 km/h 7.4 km/h 33 % 0.0 mm
15:35 34.4 °C 15.3 °C 1014.8 hPa SSW 7.9 km/h 7.9 km/h 32 % 0.0 mm
15:40 34.0 °C 13.4 °C 1014.8 hPa SW 16.7 km/h 16.7 km/h 29 % 0.0 mm
15:45 33.7 °C 12.7 °C 1014.8 hPa SE 16.7 km/h 16.7 km/h 28 % 0.0 mm
15:50 33.7 °C 12.7 °C 1014.8 hPa WSW 18.5 km/h 18.5 km/h 28 % 0.0 mm
15:55 33.8 °C 12.7 °C 1014.8 hPa South 11.1 km/h 11.1 km/h 28 % 0.0 mm
16:00 34.1 °C 13.0 °C 1014.8 hPa SSW 11.4 km/h 11.4 km/h 28 % 0.0 mm
16:05 33.6 °C 12.6 °C 1014.8 hPa SSW 16.7 km/h 16.7 km/h 28 % 0.0 mm
16:10 33.6 °C 12.6 °C 1014.8 hPa SW 9.3 km/h 10.8 km/h 28 % 0.0 mm
16:11 33.6 °C 12.6 °C 1014.8 hPa South 18.5 km/h 18.5 km/h 28 % 0.0 mm
16:16 32.8 °C 11.3 °C 1014.8 hPa SW 11.1 km/h 11.1 km/h 27 % 0.0 mm
16:21 33.3 °C 12.3 °C 1014.8 hPa WSW 9.3 km/h 9.3 km/h 28 % 0.0 mm
16:26 33.2 °C 11.7 °C 1014.8 hPa SSW 10.0 km/h 10.0 km/h 27 % 0.0 mm
16:31 33.6 °C 12.0 °C 1014.8 hPa SSW 9.3 km/h 9.3 km/h 27 % 0.0 mm
16:36 34.3 °C 12.6 °C 1014.8 hPa SW 4.7 km/h 4.7 km/h 27 % 0.0 mm
16:41 34.2 °C 12.6 °C 1014.8 hPa SSW 11.1 km/h 11.1 km/h 27 % 0.0 mm
16:46 33.9 °C 12.3 °C 1014.8 hPa SW 13.0 km/h 13.0 km/h 27 % 0.0 mm
16:51 33.8 °C 12.2 °C 1014.8 hPa WSW 12.6 km/h 12.6 km/h 27 % 0.0 mm
16:56 33.8 °C 12.7 °C 1014.8 hPa SSW 13.0 km/h 13.0 km/h 28 % 0.0 mm
17:01 33.6 °C 12.6 °C 1014.8 hPa SW 7.4 km/h 7.4 km/h 28 % 0.0 mm
17:06 33.5 °C 12.5 °C 1014.8 hPa SW 9.0 km/h 9.0 km/h 28 % 0.0 mm
17:11 33.4 °C 11.8 °C 1014.8 hPa SW 9.3 km/h 9.3 km/h 27 % 0.0 mm
17:16 33.7 °C 12.1 °C 1014.8 hPa South 11.1 km/h 11.1 km/h 27 % 0.0 mm
17:21 33.7 °C 11.6 °C 1014.8 hPa SW 11.1 km/h 11.1 km/h 26 % 0.0 mm
17:26 33.5 °C 11.9 °C 1014.8 hPa SW 9.3 km/h 9.3 km/h 27 % 0.0 mm
17:31 33.5 °C 11.9 °C 1014.8 hPa SW 7.6 km/h 7.6 km/h 27 % 0.0 mm
17:36 33.6 °C 12.0 °C 1014.8 hPa SSE 5.6 km/h 5.8 km/h 27 % 0.0 mm
17:41 33.8 °C 12.2 °C 1014.8 hPa SSW 9.3 km/h 9.3 km/h 27 % 0.0 mm
17:46 33.2 °C 11.1 °C 1014.8 hPa SSW 9.3 km/h 9.3 km/h 26 % 0.0 mm
17:51 33.1 °C 11.0 °C 1014.8 hPa SSW 11.1 km/h 11.1 km/h 26 % 0.0 mm
17:56 33.2 °C 11.1 °C 1014.8 hPa SSW 18.5 km/h 18.5 km/h 26 % 0.0 mm
18:01 33.1 °C 11.0 °C 1014.8 hPa WSW 10.3 km/h 10.3 km/h 26 % 0.0 mm
18:06 33.0 °C 10.9 °C 1014.8 hPa SW 9.3 km/h 10.3 km/h 26 % 0.0 mm
18:11 32.8 °C 10.8 °C 1014.8 hPa SW 9.3 km/h 9.3 km/h 26 % 0.0 mm
18:16 32.9 °C 10.8 °C 1014.8 hPa SSW 11.1 km/h 11.1 km/h 26 % 0.0 mm
18:21 32.5 °C 9.9 °C 1014.8 hPa WSW 9.3 km/h 9.3 km/h 25 % 0.0 mm
18:26 32.8 °C 10.8 °C 1014.8 hPa SSW 9.3 km/h 9.3 km/h 26 % 0.0 mm
18:31 32.5 °C 9.9 °C 1014.8 hPa SW 14.0 km/h 14.0 km/h 25 % 0.0 mm
18:36 32.0 °C 9.5 °C 1014.8 hPa SW 9.3 km/h 9.3 km/h 25 % 0.0 mm
18:41 32.0 °C 9.5 °C 1014.8 hPa SW 9.3 km/h 9.3 km/h 25 % 0.0 mm
18:46 32.0 °C 9.5 °C 1014.8 hPa WSW 9.3 km/h 9.3 km/h 25 % 0.0 mm
18:51 31.7 °C 9.3 °C 1014.8 hPa WNW 11.1 km/h 11.1 km/h 25 % 0.0 mm
18:56 31.7 °C 9.3 °C 1014.8 hPa SW 11.1 km/h 11.1 km/h 25 % 0.0 mm
19:01 31.6 °C 9.2 °C 1014.8 hPa SW 11.1 km/h 11.1 km/h 25 % 0.0 mm
19:06 31.3 °C 9.5 °C 1014.8 hPa WSW 15.1 km/h 15.1 km/h 26 % 0.0 mm
19:11 31.0 °C 9.2 °C 1014.8 hPa SW 5.3 km/h 5.3 km/h 26 % 0.0 mm
19:16 30.9 °C 9.2 °C 1014.8 hPa SSW 11.1 km/h 11.1 km/h 26 % 0.0 mm
19:21 30.6 °C 8.9 °C 1014.8 hPa SW 9.3 km/h 9.3 km/h 26 % 0.0 mm
19:26 30.3 °C 8.7 °C 1014.8 hPa SW 9.3 km/h 9.3 km/h 26 % 0.0 mm
19:31 30.0 °C 8.4 °C 1014.8 hPa WSW 9.3 km/h 9.3 km/h 26 % 0.0 mm
19:36 29.8 °C 8.8 °C 1014.8 hPa WSW 5.6 km/h 5.6 km/h 27 % 0.0 mm
19:41 29.6 °C 8.6 °C 1014.8 hPa SW 9.3 km/h 9.3 km/h 27 % 0.0 mm
19:46 29.4 °C 8.4 °C 1014.8 hPa SW 7.6 km/h 7.6 km/h 27 % 0.0 mm
19:51 29.2 °C 8.8 °C 1014.8 hPa SW 7.6 km/h 7.6 km/h 28 % 0.0 mm
19:56 29.0 °C 8.7 °C 1014.8 hPa WSW 7.4 km/h 7.4 km/h 28 % 0.0 mm
20:01 28.8 °C 9.0 °C 1014.8 hPa SW 11.1 km/h 11.1 km/h 29 % 0.0 mm
20:06 28.6 °C 8.8 °C 1014.8 hPa SW 11.1 km/h 11.1 km/h 29 % 0.0 mm
20:11 28.3 °C 8.6 °C 1014.8 hPa South 5.6 km/h 5.6 km/h 29 % 0.0 mm
20:16 28.1 °C 8.4 °C 1014.8 hPa SW 9.3 km/h 9.3 km/h 29 % 0.0 mm
20:21 27.9 °C 8.7 °C 1014.8 hPa WSW 7.4 km/h 7.4 km/h 30 % 0.0 mm
20:26 27.7 °C 8.6 °C 1014.8 hPa SW 4.2 km/h 4.2 km/h 30 % 0.0 mm
20:31 27.4 °C 8.8 °C 1014.8 hPa WSW 5.6 km/h 5.6 km/h 31 % 0.0 mm
20:36 27.2 °C 9.1 °C 1014.8 hPa SW 5.6 km/h 5.6 km/h 32 % 0.0 mm
20:41 27.0 °C 8.9 °C 1014.8 hPa SSW 5.0 km/h 5.0 km/h 32 % 0.0 mm
20:46 26.8 °C 9.6 °C 1014.8 hPa SW 5.6 km/h 5.6 km/h 34 % 0.0 mm
20:51 26.5 °C 9.8 °C 1014.8 hPa WSW 3.7 km/h 3.7 km/h 35 % 0.0 mm
20:56 26.4 °C 10.1 °C 1014.8 hPa WSW 3.7 km/h 3.7 km/h 36 % 0.0 mm
21:01 26.2 °C 9.9 °C 1014.8 hPa SW 3.7 km/h 3.7 km/h 36 % 0.0 mm
21:06 26.0 °C 10.2 °C 1014.8 hPa SW 3.7 km/h 3.7 km/h 37 % 0.0 mm
21:11 25.9 °C 10.1 °C 1015.8 hPa WSW 3.9 km/h 3.9 km/h 37 % 0.0 mm
21:12 25.9 °C 10.1 °C 1015.8 hPa WSW 4.2 km/h 4.2 km/h 37 % 0.0 mm
21:17 25.8 °C 10.4 °C 1015.8 hPa WSW 3.9 km/h 3.9 km/h 38 % 0.0 mm
21:22 25.7 °C 10.7 °C 1015.8 hPa West 7.4 km/h 7.4 km/h 39 % 0.0 mm
21:27 25.5 °C 10.9 °C 1015.8 hPa SW 3.7 km/h 3.7 km/h 40 % 0.0 mm
21:32 25.3 °C 11.1 °C 1015.8 hPa WSW 3.7 km/h 3.7 km/h 41 % 0.0 mm
21:37 25.2 °C 11.0 °C 1015.8 hPa WSW 3.9 km/h 3.9 km/h 41 % 0.0 mm
21:42 25.2 °C 11.0 °C 1014.8 hPa West 3.2 km/h 3.5 km/h 41 % 0.0 mm
21:47 25.1 °C 11.3 °C 1014.8 hPa WSW 3.7 km/h 3.7 km/h 42 % 0.0 mm
21:52 25.0 °C 11.2 °C 1014.8 hPa SW 3.7 km/h 3.7 km/h 42 % 0.0 mm
21:57 24.9 °C 11.8 °C 1014.8 hPa WSW 3.7 km/h 3.7 km/h 44 % 0.0 mm
22:02 24.9 °C 12.2 °C 1014.8 hPa WSW 1.9 km/h 1.9 km/h 45 % 0.0 mm
22:07 24.9 °C 12.2 °C 1014.8 hPa WSW 3.9 km/h 3.9 km/h 45 % 0.0 mm
22:12 24.9 °C 12.5 °C 1015.8 hPa WSW 3.7 km/h 3.7 km/h 46 % 0.0 mm
22:17 24.9 °C 12.8 °C 1015.8 hPa WSW 3.7 km/h 3.7 km/h 47 % 0.0 mm
22:22 24.8 °C 13.1 °C 1015.8 hPa SW 1.9 km/h   48 % 0.0 mm
22:27 24.7 °C 13.3 °C 1015.8 hPa SW 1.9 km/h 1.9 km/h 49 % 0.0 mm
22:32 24.6 °C 13.2 °C 1015.8 hPa Calm     49 % 0.0 mm
22:37 24.5 °C 13.4 °C 1015.8 hPa WSW 1.9 km/h   50 % 0.0 mm
22:42 24.4 °C 13.6 °C 1015.8 hPa Calm     51 % 0.0 mm
22:47 24.3 °C 13.5 °C 1015.8 hPa WNW 1.9 km/h 1.9 km/h 51 % 0.0 mm
22:50 20.8 °C 16.0 °C 1015.8 hPa Calm     74 % 0.0 mm
22:52 24.2 °C 13.7 °C 1015.8 hPa Calm     52 % 0.0 mm
22:57 24.1 °C 13.6 °C 1015.8 hPa Calm     52 % 0.0 mm
23:00 20.9 °C 16.1 °C 1015.8 hPa Calm     74 % 0.0 mm
23:02 24.0 °C 13.6 °C 1015.8 hPa Calm     52 % 0.0 mm
23:07 23.9 °C 13.7 °C 1015.8 hPa Calm     53 % 0.0 mm
23:10 20.8 °C 16.0 °C 1015.8 hPa Calm   1.6 km/h 74 % 0.0 mm
23:12 23.8 °C 14.2 °C 1015.8 hPa Calm     55 % 0.0 mm
23:17 23.7 °C 14.1 °C 1015.8 hPa NNE 1.9 km/h   55 % 0.0 mm
23:20 20.8 °C 16.0 °C 1015.8 hPa Calm     74 % 0.0 mm
23:22 23.6 °C 14.1 °C 1015.8 hPa NNE 1.9 km/h 1.9 km/h 55 % 0.0 mm
23:27 23.6 °C 14.6 °C 1015.8 hPa Calm     57 % 0.0 mm
23:28 23.6 °C 14.6 °C 1015.8 hPa Calm     57 % 0.0 mm
23:30 20.8 °C 16.2 °C 1015.8 hPa SSE 1.6 km/h 3.2 km/h 75 % 0.0 mm
23:33 23.5 °C 15.0 °C 1015.8 hPa Calm     59 % 0.0 mm
23:38 23.4 °C 15.2 °C 1015.8 hPa Calm     60 % 0.0 mm
23:40 20.7 °C 16.1 °C 1015.8 hPa Calm   1.6 km/h 75 % 0.0 mm
23:43 23.3 °C 15.1 °C 1016.8 hPa Calm     60 % 0.0 mm
23:50 20.6 °C 16.0 °C 1015.8 hPa Calm     75 % 0.0 mm
23:53 23.2 °C 15.5 °C 1016.8 hPa WSW 1.9 km/h 1.9 km/h 62 % 0.0 mm
23:58 23.1 °C 15.7 °C 1015.8 hPa Calm     63 % 0.0 mm
Meteo Sesrovires
Elogis d' Weather Underground - 3.5 mb

Guio original per  Jim McMurry - jmcmurry@mwt.net Adaptat per a la plantilla per  Wim van der Kuil - Leuven-Template.eu

Trobareu la nostra informacio del temps tambe a:

Weather Underground

AWEKAS